createdAt,value
2018-07-31T00:00:44.845Z,19.94
2018-07-31T00:03:13.940Z,19.85
2018-07-31T00:05:43.013Z,19.90
2018-07-31T00:08:11.963Z,19.93
2018-07-31T00:10:41.011Z,19.96
2018-07-31T00:13:10.107Z,20.03
2018-07-31T00:15:39.194Z,20.03
2018-07-31T00:18:08.531Z,20.04
2018-07-31T00:20:37.791Z,20.05
2018-07-31T00:23:07.107Z,19.97
2018-07-31T00:25:36.809Z,19.85
2018-07-31T00:28:05.890Z,19.78
2018-07-31T00:30:34.904Z,19.73
2018-07-31T00:33:04.039Z,19.81
2018-07-31T00:35:33.186Z,19.88
2018-07-31T00:38:02.390Z,19.94
2018-07-31T00:40:31.903Z,19.98
2018-07-31T00:43:01.004Z,19.98
2018-07-31T00:45:30.096Z,19.95
2018-07-31T00:47:59.199Z,19.91
2018-07-31T00:50:28.266Z,19.98
2018-07-31T00:52:57.249Z,19.96
2018-07-31T00:55:26.288Z,20.04
2018-07-31T00:57:55.265Z,20.06
2018-07-31T01:00:24.369Z,20.09
2018-07-31T01:02:53.418Z,20.16
2018-07-31T01:05:22.439Z,20.26
2018-07-31T01:07:51.538Z,20.38
2018-07-31T01:10:20.815Z,20.41
2018-07-31T01:12:49.614Z,20.35
2018-07-31T01:15:18.695Z,20.37
2018-07-31T01:17:47.651Z,20.38
2018-07-31T01:20:16.755Z,20.46
2018-07-31T01:22:45.710Z,20.44
2018-07-31T01:25:14.952Z,20.46
2018-07-31T01:27:44.320Z,20.44
2018-07-31T01:30:13.279Z,20.44
2018-07-31T01:32:42.358Z,20.48
2018-07-31T01:35:11.489Z,20.50
2018-07-31T01:37:40.598Z,20.41
2018-07-31T01:40:09.975Z,20.47
2018-07-31T01:42:39.832Z,20.41
2018-07-31T01:45:08.829Z,20.40
2018-07-31T01:47:37.967Z,20.39
2018-07-31T01:50:07.008Z,20.33
2018-07-31T01:52:36.091Z,20.28
2018-07-31T01:55:05.230Z,20.32
2018-07-31T01:57:34.222Z,20.33
2018-07-31T02:00:03.243Z,20.37
2018-07-31T02:02:32.817Z,20.38
2018-07-31T02:05:01.920Z,20.31
2018-07-31T02:07:31.012Z,20.27
2018-07-31T02:10:00.371Z,20.21
2018-07-31T02:12:29.191Z,20.23
2018-07-31T02:14:58.183Z,20.19
2018-07-31T02:17:27.256Z,20.20
2018-07-31T02:19:56.280Z,20.21
2018-07-31T02:22:25.254Z,20.19
2018-07-31T02:24:54.359Z,20.22
2018-07-31T02:27:23.374Z,20.32
2018-07-31T02:29:57.216Z,20.46
2018-07-31T02:32:26.271Z,20.47
2018-07-31T02:34:55.376Z,20.40
2018-07-31T02:37:24.889Z,20.49
2018-07-31T02:39:53.967Z,20.49
2018-07-31T02:42:23.046Z,20.41
2018-07-31T02:44:52.295Z,20.32
2018-07-31T02:47:21.372Z,20.30
2018-07-31T02:49:50.465Z,20.37
2018-07-31T02:52:19.497Z,20.30
2018-07-31T02:54:48.664Z,20.18
2018-07-31T02:57:18.135Z,20.06
2018-07-31T02:59:47.064Z,19.93
2018-07-31T03:02:16.357Z,19.93
2018-07-31T03:04:46.424Z,19.93
2018-07-31T03:07:15.403Z,19.99
2018-07-31T03:09:44.370Z,19.94
2018-07-31T03:12:13.471Z,19.97
2018-07-31T03:14:42.900Z,20.05
2018-07-31T03:17:11.859Z,20.05
2018-07-31T03:19:40.968Z,19.93
2018-07-31T03:22:10.088Z,19.94
2018-07-31T03:24:39.231Z,19.98
2018-07-31T03:27:08.328Z,19.85
2018-07-31T03:29:37.758Z,19.78
2018-07-31T03:32:06.892Z,19.82
2018-07-31T03:34:35.879Z,19.84
2018-07-31T03:37:05.182Z,19.86
2018-07-31T03:39:34.323Z,19.95
2018-07-31T03:42:03.243Z,19.86
2018-07-31T03:44:32.163Z,19.85
2018-07-31T03:47:01.233Z,19.94
2018-07-31T03:49:30.380Z,20.07
2018-07-31T03:51:59.519Z,20.09
2018-07-31T03:54:28.702Z,20.05
2018-07-31T03:56:57.603Z,20.11
2018-07-31T03:59:26.603Z,20.24
2018-07-31T04:01:55.859Z,20.35
2018-07-31T04:04:25.059Z,20.40
2018-07-31T04:06:54.399Z,20.43
2018-07-31T04:09:23.531Z,20.47
2018-07-31T04:11:52.674Z,20.56
2018-07-31T04:14:22.282Z,20.55
2018-07-31T04:16:51.631Z,20.59
2018-07-31T04:19:20.682Z,20.67
2018-07-31T04:21:49.739Z,20.74
2018-07-31T04:24:18.834Z,20.77
2018-07-31T04:26:47.846Z,20.91
2018-07-31T04:29:17.076Z,20.96
2018-07-31T04:31:46.151Z,20.96
2018-07-31T04:34:15.218Z,20.94
2018-07-31T04:36:44.479Z,20.98
2018-07-31T04:39:14.501Z,21.00
2018-07-31T04:41:44.115Z,21.08
2018-07-31T04:44:13.371Z,21.18
2018-07-31T04:46:42.511Z,21.23
2018-07-31T04:49:11.646Z,21.31
2018-07-31T04:51:43.016Z,21.31
2018-07-31T04:54:12.895Z,21.39
2018-07-31T04:56:41.846Z,21.33
2018-07-31T04:59:11.515Z,21.42
2018-07-31T05:01:40.787Z,21.46
2018-07-31T05:04:09.805Z,21.44
2018-07-31T05:06:40.497Z,21.36
2018-07-31T05:09:12.133Z,21.34
2018-07-31T05:11:41.623Z,21.36
2018-07-31T05:14:12.700Z,21.16
2018-07-31T05:16:45.362Z,21.16
2018-07-31T05:19:15.575Z,21.18
2018-07-31T05:21:47.607Z,21.25
2018-07-31T05:24:16.650Z,21.13
2018-07-31T05:26:45.738Z,21.14
2018-07-31T05:29:14.766Z,21.12
2018-07-31T05:31:43.823Z,21.19
2018-07-31T05:34:13.023Z,21.23
2018-07-31T05:36:42.043Z,21.16
2018-07-31T05:39:12.244Z,21.17
2018-07-31T05:41:41.406Z,21.19
2018-07-31T05:44:10.959Z,21.22
2018-07-31T05:46:40.152Z,21.39
2018-07-31T05:49:09.911Z,21.54
2018-07-31T05:51:43.212Z,21.72
2018-07-31T05:54:12.220Z,21.89
2018-07-31T05:56:41.467Z,22.22
2018-07-31T05:59:10.455Z,22.36
2018-07-31T06:01:39.935Z,22.56
2018-07-31T06:04:08.945Z,22.53
2018-07-31T06:06:37.924Z,22.69
2018-07-31T06:09:09.364Z,22.84
2018-07-31T06:11:38.999Z,22.89
2018-07-31T06:14:08.859Z,22.98
2018-07-31T06:16:38.118Z,23.10
2018-07-31T06:19:07.212Z,23.22
2018-07-31T06:21:36.534Z,23.33
2018-07-31T06:24:05.877Z,23.54
2018-07-31T06:26:34.883Z,23.89
2018-07-31T06:29:03.882Z,24.17
2018-07-31T06:31:33.330Z,24.63
2018-07-31T06:34:02.334Z,24.99
2018-07-31T06:36:31.500Z,25.44
2018-07-31T06:39:00.815Z,25.86
2018-07-31T06:41:29.755Z,26.25
2018-07-31T06:43:58.808Z,25.76
2018-07-31T06:46:28.432Z,26.10
2018-07-31T06:48:57.609Z,26.09
2018-07-31T06:51:26.622Z,26.14
2018-07-31T06:53:55.631Z,26.19
2018-07-31T06:56:24.900Z,26.45
2018-07-31T06:58:54.082Z,26.55
2018-07-31T07:01:23.838Z,26.70
2018-07-31T07:03:53.090Z,26.98
2018-07-31T07:06:22.323Z,27.44
2018-07-31T07:08:51.318Z,27.79
2018-07-31T07:11:20.617Z,28.58
2018-07-31T07:13:49.809Z,28.92
2018-07-31T07:16:19.622Z,29.23
2018-07-31T07:18:48.640Z,29.15
2018-07-31T07:21:17.953Z,29.67
2018-07-31T07:23:47.656Z,29.12
2018-07-31T07:26:17.448Z,29.35
2018-07-31T07:28:46.774Z,29.52
2018-07-31T07:31:15.739Z,29.48
2018-07-31T07:33:45.709Z,29.33
2018-07-31T07:36:15.354Z,29.11
2018-07-31T07:38:44.680Z,28.96
2018-07-31T07:41:13.638Z,29.07
2018-07-31T07:43:42.754Z,29.20
2018-07-31T07:46:11.902Z,29.12
2018-07-31T07:48:42.597Z,28.63
2018-07-31T07:51:11.327Z,28.27
2018-07-31T07:53:40.394Z,28.25
2018-07-31T07:56:09.470Z,28.53
2018-07-31T07:58:38.578Z,28.47
2018-07-31T08:01:07.790Z,27.96
2018-07-31T08:03:36.786Z,27.77
2018-07-31T08:06:05.775Z,27.70
2018-07-31T08:08:35.001Z,28.25
2018-07-31T08:11:04.152Z,29.13
2018-07-31T08:13:33.206Z,29.84
2018-07-31T08:16:02.655Z,30.23
2018-07-31T08:18:31.627Z,31.23
2018-07-31T08:21:00.736Z,31.25
2018-07-31T08:23:30.035Z,29.61
2018-07-31T08:25:59.108Z,29.84
2018-07-31T08:28:28.123Z,29.01
2018-07-31T08:30:57.577Z,29.19
2018-07-31T08:33:26.711Z,28.96
2018-07-31T08:35:55.814Z,29.38
2018-07-31T08:38:25.027Z,29.04
2018-07-31T08:40:54.084Z,28.48
2018-07-31T08:43:23.474Z,28.58
2018-07-31T08:45:52.595Z,28.93
2018-07-31T08:48:21.693Z,28.42
2018-07-31T08:50:51.100Z,29.06
2018-07-31T08:53:19.921Z,29.32
2018-07-31T08:55:49.716Z,30.10
2018-07-31T08:58:18.863Z,30.35
2018-07-31T09:00:47.930Z,29.98
2018-07-31T09:03:16.908Z,29.64
2018-07-31T09:05:47.043Z,29.48
2018-07-31T09:08:16.498Z,29.58
2018-07-31T09:10:45.456Z,29.11
2018-07-31T09:13:14.667Z,29.26
2018-07-31T09:15:43.620Z,29.19
2018-07-31T09:18:12.708Z,29.00
2018-07-31T09:20:41.935Z,28.75
2018-07-31T09:23:10.982Z,28.64
2018-07-31T09:25:46.828Z,27.92
2018-07-31T09:28:17.387Z,27.71
2018-07-31T09:30:51.716Z,27.34
2018-07-31T09:33:20.973Z,26.86
2018-07-31T09:35:50.188Z,26.64
2018-07-31T09:38:19.109Z,26.68
2018-07-31T09:40:48.015Z,26.54
2018-07-31T09:43:17.307Z,26.62
2018-07-31T09:45:46.500Z,26.89
2018-07-31T09:48:15.660Z,26.61
2018-07-31T09:50:44.792Z,27.06
2018-07-31T09:53:13.806Z,27.37
2018-07-31T09:55:43.096Z,27.32
2018-07-31T09:58:12.235Z,28.01
2018-07-31T10:00:46.308Z,28.25
2018-07-31T10:03:15.446Z,27.41
2018-07-31T10:05:44.544Z,27.65
2018-07-31T10:08:17.603Z,28.20
2018-07-31T10:10:46.672Z,27.62
2018-07-31T10:13:15.695Z,27.53
2018-07-31T10:15:45.098Z,27.45
2018-07-31T10:18:14.311Z,27.92
2018-07-31T10:20:43.946Z,27.66
2018-07-31T10:23:13.206Z,27.52
2018-07-31T10:25:42.322Z,27.62
2018-07-31T10:28:11.182Z,27.41
2018-07-31T10:30:40.827Z,27.94
2018-07-31T10:33:09.888Z,28.56
2018-07-31T10:35:38.895Z,28.76
2018-07-31T10:38:07.979Z,28.04
2018-07-31T10:40:37.179Z,27.78
2018-07-31T10:43:06.384Z,28.28
2018-07-31T10:45:35.606Z,28.70
2018-07-31T10:48:04.777Z,28.71
2018-07-31T10:50:33.768Z,28.08
2018-07-31T10:53:02.876Z,27.32
2018-07-31T10:55:31.973Z,27.37
2018-07-31T10:58:00.980Z,27.56
2018-07-31T11:00:30.097Z,27.79
2018-07-31T11:02:59.465Z,27.40
2018-07-31T11:05:28.661Z,26.54
2018-07-31T11:07:57.730Z,27.08
2018-07-31T11:10:26.800Z,26.98
2018-07-31T11:12:55.954Z,27.51
2018-07-31T11:15:25.171Z,27.86
2018-07-31T11:17:54.304Z,27.74
2018-07-31T11:20:23.427Z,27.78
2018-07-31T11:22:52.887Z,28.04
2018-07-31T11:25:22.830Z,28.07
2018-07-31T11:27:51.862Z,28.07
2018-07-31T11:30:20.981Z,27.65
2018-07-31T11:32:50.021Z,27.86
2018-07-31T11:35:19.740Z,27.95
2018-07-31T11:37:49.138Z,28.01
2018-07-31T11:40:18.740Z,27.59
2018-07-31T11:42:48.043Z,27.61
2018-07-31T11:45:17.128Z,27.48
2018-07-31T11:47:46.251Z,27.25
2018-07-31T11:50:15.532Z,27.60
2018-07-31T11:52:44.636Z,27.56
2018-07-31T11:55:13.775Z,27.85
2018-07-31T11:57:42.887Z,27.93
2018-07-31T12:00:13.463Z,27.47
2018-07-31T12:02:42.744Z,27.19
2018-07-31T12:05:11.822Z,27.26
2018-07-31T12:07:41.246Z,27.30
2018-07-31T12:10:10.130Z,27.30
2018-07-31T12:12:39.438Z,27.55
2018-07-31T12:15:08.560Z,27.83
2018-07-31T12:17:37.601Z,27.88
2018-07-31T12:20:06.952Z,28.40
2018-07-31T12:22:36.123Z,28.05
2018-07-31T12:25:05.088Z,27.89
2018-07-31T12:27:34.300Z,27.60
2018-07-31T12:30:03.711Z,27.31
2018-07-31T12:32:32.877Z,26.84
2018-07-31T12:35:01.796Z,27.03
2018-07-31T12:37:31.242Z,27.07
2018-07-31T12:40:00.380Z,27.12
2018-07-31T12:42:29.481Z,26.83
2018-07-31T12:44:58.860Z,26.91
2018-07-31T12:47:27.734Z,26.81
2018-07-31T12:49:57.348Z,26.48
2018-07-31T12:52:27.118Z,26.07
2018-07-31T12:54:56.333Z,25.72
2018-07-31T12:57:25.610Z,25.52
2018-07-31T12:59:54.789Z,25.56
2018-07-31T13:02:24.215Z,25.48
2018-07-31T13:04:53.056Z,25.58
2018-07-31T13:07:22.636Z,25.22
2018-07-31T13:09:51.819Z,25.16
2018-07-31T13:12:20.894Z,24.98
2018-07-31T13:14:50.536Z,24.88
2018-07-31T13:17:19.823Z,24.50
2018-07-31T13:19:49.115Z,24.35
2018-07-31T13:22:21.038Z,24.43
2018-07-31T13:24:50.401Z,24.57
2018-07-31T13:27:19.801Z,24.52
2018-07-31T13:29:49.205Z,24.51
2018-07-31T13:32:18.293Z,24.66
2018-07-31T13:34:47.599Z,24.70
2018-07-31T13:37:17.207Z,24.85
2018-07-31T13:39:46.313Z,24.61
2018-07-31T13:42:15.794Z,24.14
2018-07-31T13:44:45.147Z,24.30
2018-07-31T13:47:14.081Z,24.29
2018-07-31T13:49:43.719Z,24.55
2018-07-31T13:52:13.016Z,24.20
2018-07-31T13:54:42.316Z,24.16
2018-07-31T13:57:11.613Z,24.09
2018-07-31T13:59:41.135Z,24.18
2018-07-31T14:02:10.328Z,24.42
2018-07-31T14:04:39.323Z,24.66
2018-07-31T14:07:08.592Z,24.90
2018-07-31T14:09:37.604Z,24.79
2018-07-31T14:12:06.711Z,24.85
2018-07-31T14:14:36.125Z,24.71
2018-07-31T14:17:05.016Z,24.57
2018-07-31T14:19:34.113Z,24.51
2018-07-31T14:22:03.913Z,24.78
2018-07-31T14:24:33.121Z,24.74
2018-07-31T14:27:02.200Z,24.59
2018-07-31T14:29:31.742Z,24.15
2018-07-31T14:32:00.852Z,23.67
2018-07-31T14:34:29.922Z,23.39
2018-07-31T14:36:59.442Z,22.99
2018-07-31T14:39:28.379Z,22.69
2018-07-31T14:41:57.610Z,22.55
2018-07-31T14:44:26.948Z,22.43
2018-07-31T14:46:56.322Z,22.32
2018-07-31T14:49:25.426Z,22.25
2018-07-31T14:51:55.354Z,22.22
2018-07-31T14:54:24.518Z,22.21
2018-07-31T14:56:53.503Z,22.21
2018-07-31T14:59:22.726Z,22.21
2018-07-31T15:01:51.662Z,22.18
2018-07-31T15:04:20.716Z,22.18
2018-07-31T15:06:49.951Z,22.20
2018-07-31T15:09:19.308Z,22.27
2018-07-31T15:11:48.511Z,22.35
2018-07-31T15:14:17.847Z,22.51
2018-07-31T15:16:47.717Z,22.64
2018-07-31T15:19:16.847Z,22.75
2018-07-31T15:21:46.864Z,22.93
2018-07-31T15:24:15.941Z,23.11
2018-07-31T15:26:45.227Z,23.28
2018-07-31T15:29:15.278Z,23.47
2018-07-31T15:31:44.279Z,23.69
2018-07-31T15:34:13.478Z,23.82
2018-07-31T15:36:42.759Z,24.01
2018-07-31T15:39:13.334Z,24.09
2018-07-31T15:41:42.686Z,24.17
2018-07-31T15:44:12.269Z,24.47
2018-07-31T15:46:41.407Z,24.66
2018-07-31T15:49:10.502Z,24.78
2018-07-31T15:51:39.919Z,24.89
2018-07-31T15:54:09.078Z,25.02
2018-07-31T15:56:38.914Z,24.88
2018-07-31T15:59:08.145Z,24.88
2018-07-31T16:01:37.416Z,24.79
2018-07-31T16:04:06.707Z,24.81
2018-07-31T16:06:35.890Z,24.70
2018-07-31T16:09:06.577Z,24.63
2018-07-31T16:11:35.764Z,24.66
2018-07-31T16:14:05.272Z,24.53
2018-07-31T16:16:34.352Z,24.42
2018-07-31T16:19:03.454Z,24.46
2018-07-31T16:21:32.876Z,24.34
2018-07-31T16:24:02.056Z,24.18
2018-07-31T16:26:30.963Z,24.16
2018-07-31T16:29:00.389Z,24.26
2018-07-31T16:31:29.527Z,24.30
2018-07-31T16:33:59.356Z,24.31
2018-07-31T16:36:28.400Z,24.26
2018-07-31T16:38:57.331Z,24.19
2018-07-31T16:41:26.375Z,24.11
2018-07-31T16:43:55.463Z,24.07
2018-07-31T16:46:24.628Z,23.92
2018-07-31T16:48:53.858Z,23.95
2018-07-31T16:51:23.043Z,23.90
2018-07-31T16:53:52.028Z,23.94
2018-07-31T16:56:21.122Z,23.82
2018-07-31T16:58:50.577Z,23.66
2018-07-31T17:01:19.724Z,23.68
2018-07-31T17:03:48.825Z,23.64
2018-07-31T17:06:17.970Z,23.60
2018-07-31T17:08:47.126Z,23.44
2018-07-31T17:11:16.128Z,23.49
2018-07-31T17:13:45.659Z,23.39
2018-07-31T17:16:14.735Z,23.35
2018-07-31T17:18:43.859Z,23.37
2018-07-31T17:21:13.554Z,23.35
2018-07-31T17:23:42.535Z,23.29
2018-07-31T17:26:11.732Z,23.19
2018-07-31T17:28:41.057Z,23.10
2018-07-31T17:31:10.342Z,23.01
2018-07-31T17:33:39.638Z,22.95
2018-07-31T17:36:08.523Z,22.86
2018-07-31T17:38:37.799Z,22.86
2018-07-31T17:41:06.892Z,22.78
2018-07-31T17:43:36.156Z,22.75
2018-07-31T17:46:05.426Z,22.67
2018-07-31T17:48:34.977Z,22.64
2018-07-31T17:51:04.198Z,22.58
2018-07-31T17:53:33.387Z,22.47
2018-07-31T17:56:03.177Z,22.55
2018-07-31T17:58:32.355Z,22.55
2018-07-31T18:01:01.516Z,22.52
2018-07-31T18:03:30.532Z,22.54
2018-07-31T18:05:59.514Z,22.49
2018-07-31T18:08:28.703Z,22.49
2018-07-31T18:10:57.714Z,22.44
2018-07-31T18:13:26.613Z,22.44
2018-07-31T18:15:55.710Z,22.39
2018-07-31T18:18:24.754Z,22.31
2018-07-31T18:20:54.208Z,22.18
2018-07-31T18:23:23.411Z,22.13
2018-07-31T18:25:52.555Z,22.05
2018-07-31T18:28:21.711Z,22.04
2018-07-31T18:30:50.822Z,21.97
2018-07-31T18:33:19.994Z,21.86
2018-07-31T18:35:48.995Z,21.72
2018-07-31T18:38:18.213Z,21.70
2018-07-31T18:40:47.515Z,21.61
2018-07-31T18:43:16.401Z,21.60
2018-07-31T18:45:45.675Z,21.58
2018-07-31T18:48:15.188Z,21.57
2018-07-31T18:50:44.114Z,21.53
2018-07-31T18:53:13.195Z,21.48
2018-07-31T18:55:42.428Z,21.45
2018-07-31T18:58:11.583Z,21.39
2018-07-31T19:00:40.707Z,21.39
2018-07-31T19:03:09.731Z,21.35
2018-07-31T19:05:38.885Z,21.29
2018-07-31T19:08:08.159Z,21.29
2018-07-31T19:10:37.443Z,21.34
2018-07-31T19:13:06.563Z,21.25
2018-07-31T19:15:35.356Z,21.19
2018-07-31T19:18:04.191Z,21.17
2018-07-31T19:20:33.267Z,21.12
2018-07-31T19:23:02.293Z,21.06
2018-07-31T19:25:31.690Z,20.99
2018-07-31T19:28:00.774Z,20.94
2018-07-31T19:30:29.914Z,20.92
2018-07-31T19:32:58.967Z,20.91
2018-07-31T19:35:27.958Z,20.87
2018-07-31T19:37:57.233Z,20.85
2018-07-31T19:40:26.504Z,20.84
2018-07-31T19:42:55.359Z,20.87
2018-07-31T19:45:24.309Z,20.87
2018-07-31T19:47:53.643Z,20.89
2018-07-31T19:50:23.452Z,20.78
2018-07-31T19:52:52.566Z,20.75
2018-07-31T19:55:21.653Z,20.70
2018-07-31T19:57:50.816Z,20.68
2018-07-31T20:00:20.015Z,20.67
2018-07-31T20:02:49.134Z,20.57
2018-07-31T20:05:18.231Z,20.51
2018-07-31T20:07:47.130Z,20.56
2018-07-31T20:10:16.417Z,20.52
2018-07-31T20:12:45.506Z,20.49
2018-07-31T20:15:14.566Z,20.47
2018-07-31T20:17:43.751Z,20.48
2018-07-31T20:20:12.782Z,20.45
2018-07-31T20:22:41.683Z,20.41
2018-07-31T20:25:10.917Z,20.43
2018-07-31T20:27:40.036Z,20.49
2018-07-31T20:30:09.013Z,20.42
2018-07-31T20:32:38.028Z,20.47
2018-07-31T20:35:06.974Z,20.44
2018-07-31T20:37:35.937Z,20.39
2018-07-31T20:40:05.274Z,20.37
2018-07-31T20:42:34.246Z,20.35
2018-07-31T20:45:03.300Z,20.27
2018-07-31T20:47:32.484Z,20.26
2018-07-31T20:50:01.619Z,20.31
2018-07-31T20:52:30.520Z,20.30
2018-07-31T20:54:59.604Z,20.30
2018-07-31T20:57:28.578Z,20.18
2018-07-31T20:59:57.520Z,20.21
2018-07-31T21:02:26.623Z,20.16
2018-07-31T21:04:55.684Z,20.13
2018-07-31T21:07:24.642Z,20.17
2018-07-31T21:09:53.670Z,20.15
2018-07-31T21:12:22.558Z,20.03
2018-07-31T21:14:51.451Z,20.06
2018-07-31T21:17:20.690Z,20.02
2018-07-31T21:19:49.638Z,19.99
2018-07-31T21:22:18.738Z,19.97
2018-07-31T21:24:47.866Z,20.02
2018-07-31T21:27:16.947Z,19.98
2018-07-31T21:29:45.921Z,19.97
2018-07-31T21:32:14.743Z,19.93
2018-07-31T21:34:43.783Z,19.95
2018-07-31T21:37:12.597Z,20.01
2018-07-31T21:39:41.671Z,20.01
2018-07-31T21:42:10.696Z,19.98
2018-07-31T21:44:39.542Z,20.02
2018-07-31T21:47:08.893Z,20.02
2018-07-31T21:49:37.858Z,19.83
2018-07-31T21:52:06.870Z,19.79
2018-07-31T21:54:36.017Z,19.85
2018-07-31T21:57:04.939Z,19.85
2018-07-31T21:59:34.052Z,19.88
2018-07-31T22:02:03.489Z,19.85
2018-07-31T22:04:32.448Z,19.85
2018-07-31T22:07:01.373Z,19.84
2018-07-31T22:09:37.667Z,19.75
2018-07-31T22:12:06.591Z,19.82
2018-07-31T22:14:35.673Z,19.79
2018-07-31T22:17:04.837Z,19.82
2018-07-31T22:19:33.882Z,19.77
2018-07-31T22:22:02.974Z,19.60
2018-07-31T22:24:31.864Z,19.61
2018-07-31T22:27:00.670Z,19.62
2018-07-31T22:29:29.662Z,19.58
2018-07-31T22:31:58.681Z,19.59
2018-07-31T22:34:27.535Z,19.59
2018-07-31T22:36:56.722Z,19.64
2018-07-31T22:39:25.972Z,19.63
2018-07-31T22:41:54.742Z,19.58
2018-07-31T22:44:23.819Z,19.59
2018-07-31T22:46:53.135Z,19.55
2018-07-31T22:49:22.298Z,19.57
2018-07-31T22:51:51.315Z,19.66
2018-07-31T22:54:20.523Z,19.64
2018-07-31T22:56:49.374Z,19.61
2018-07-31T22:59:18.280Z,19.58
2018-07-31T23:01:47.503Z,19.46
2018-07-31T23:04:16.770Z,19.46
2018-07-31T23:06:45.684Z,19.31
2018-07-31T23:09:14.691Z,19.27
2018-07-31T23:11:43.746Z,19.34
2018-07-31T23:14:12.656Z,19.28
2018-07-31T23:16:41.788Z,19.28
2018-07-31T23:19:10.833Z,19.26
2018-07-31T23:21:39.774Z,19.20
2018-07-31T23:24:08.649Z,19.25
2018-07-31T23:26:37.504Z,19.21
2018-07-31T23:29:06.318Z,19.29
2018-07-31T23:31:35.330Z,19.26
2018-07-31T23:34:04.490Z,19.26
2018-07-31T23:36:33.325Z,19.36
2018-07-31T23:39:02.628Z,19.41
2018-07-31T23:41:31.574Z,19.35
2018-07-31T23:44:00.371Z,19.25
2018-07-31T23:46:29.494Z,19.22
2018-07-31T23:48:58.458Z,19.13
2018-07-31T23:51:27.255Z,19.08
2018-07-31T23:53:56.136Z,19.05
2018-07-31T23:56:25.143Z,18.99
2018-07-31T23:58:54.489Z,19.01
